sensor_id;sensor_type;location;lat;lon;timestamp;temperature;humidity
27633;DHT22;15046;50.930;13.334;2023-07-31T00:00:30;15.10;99.90
27633;DHT22;15046;50.930;13.334;2023-07-31T00:02:56;15.10;99.90
27633;DHT22;15046;50.930;13.334;2023-07-31T00:05:22;15.10;99.90
27633;DHT22;15046;50.930;13.334;2023-07-31T00:07:48;15.00;99.90
27633;DHT22;15046;50.930;13.334;2023-07-31T00:10:13;15.10;99.90
27633;DHT22;15046;50.930;13.334;2023-07-31T00:12:42;15.00;99.90
27633;DHT22;15046;50.930;13.334;2023-07-31T00:15:08;15.00;99.90
27633;DHT22;15046;50.930;13.334;2023-07-31T00:17:34;15.00;99.90
27633;DHT22;15046;50.930;13.334;2023-07-31T00:20:00;15.00;99.90
27633;DHT22;15046;50.930;13.334;2023-07-31T00:22:26;15.00;99.90
27633;DHT22;15046;50.930;13.334;2023-07-31T00:24:52;15.00;99.90
27633;DHT22;15046;50.930;13.334;2023-07-31T00:27:18;15.00;99.90
27633;DHT22;15046;50.930;13.334;2023-07-31T00:29:43;15.00;99.90
27633;DHT22;15046;50.930;13.334;2023-07-31T00:32:09;15.00;99.90
27633;DHT22;15046;50.930;13.334;2023-07-31T00:34:35;15.00;99.90
27633;DHT22;15046;50.930;13.334;2023-07-31T00:37:01;15.00;99.90
27633;DHT22;15046;50.930;13.334;2023-07-31T00:39:27;15.00;99.90
27633;DHT22;15046;50.930;13.334;2023-07-31T00:41:52;15.00;99.90
27633;DHT22;15046;50.930;13.334;2023-07-31T00:44:18;15.00;99.90
27633;DHT22;15046;50.930;13.334;2023-07-31T00:46:44;15.00;99.90
27633;DHT22;15046;50.930;13.334;2023-07-31T00:49:11;15.00;99.90
27633;DHT22;15046;50.930;13.334;2023-07-31T00:51:37;15.00;99.90
27633;DHT22;15046;50.930;13.334;2023-07-31T00:54:03;15.00;99.90
27633;DHT22;15046;50.930;13.334;2023-07-31T00:56:29;15.00;99.90
27633;DHT22;15046;50.930;13.334;2023-07-31T00:58:56;15.00;99.90
27633;DHT22;15046;50.930;13.334;2023-07-31T01:01:22;15.00;99.90
27633;DHT22;15046;50.930;13.334;2023-07-31T01:03:48;15.00;99.90
27633;DHT22;15046;50.930;13.334;2023-07-31T01:12:07;14.90;99.90
27633;DHT22;15046;50.930;13.334;2023-07-31T01:14:34;14.90;99.90
27633;DHT22;15046;50.930;13.334;2023-07-31T01:17:00;14.90;99.90
27633;DHT22;15046;50.930;13.334;2023-07-31T01:19:26;14.90;99.90
27633;DHT22;15046;50.930;13.334;2023-07-31T01:21:57;14.90;99.90
27633;DHT22;15046;50.930;13.334;2023-07-31T01:24:29;14.90;99.90
27633;DHT22;15046;50.930;13.334;2023-07-31T01:26:58;14.90;99.90
27633;DHT22;15046;50.930;13.334;2023-07-31T01:32:02;14.90;99.90
27633;DHT22;15046;50.930;13.334;2023-07-31T01:34:29;15.00;99.90
27633;DHT22;15046;50.930;13.334;2023-07-31T01:36:56;15.00;99.90
27633;DHT22;15046;50.930;13.334;2023-07-31T01:39:23;15.00;99.90
27633;DHT22;15046;50.930;13.334;2023-07-31T01:41:49;15.00;99.90
27633;DHT22;15046;50.930;13.334;2023-07-31T01:44:15;15.10;99.90
27633;DHT22;15046;50.930;13.334;2023-07-31T01:46:41;15.10;99.90
27633;DHT22;15046;50.930;13.334;2023-07-31T01:49:07;15.10;99.90
27633;DHT22;15046;50.930;13.334;2023-07-31T01:51:32;15.10;99.90
27633;DHT22;15046;50.930;13.334;2023-07-31T01:54:00;15.10;99.90
27633;DHT22;15046;50.930;13.334;2023-07-31T01:56:26;15.10;99.90
27633;DHT22;15046;50.930;13.334;2023-07-31T01:58:52;15.10;99.90
27633;DHT22;15046;50.930;13.334;2023-07-31T02:01:18;15.10;99.90
27633;DHT22;15046;50.930;13.334;2023-07-31T02:03:44;15.10;99.90
27633;DHT22;15046;50.930;13.334;2023-07-31T02:06:09;15.10;99.90
27633;DHT22;15046;50.930;13.334;2023-07-31T02:08:35;15.10;99.90
27633;DHT22;15046;50.930;13.334;2023-07-31T02:11:01;15.10;99.90
27633;DHT22;15046;50.930;13.334;2023-07-31T02:13:27;15.10;99.90
27633;DHT22;15046;50.930;13.334;2023-07-31T02:15:53;15.10;99.90
27633;DHT22;15046;50.930;13.334;2023-07-31T02:18:19;15.10;99.90
27633;DHT22;15046;50.930;13.334;2023-07-31T02:20:52;15.10;99.90
27633;DHT22;15046;50.930;13.334;2023-07-31T02:23:22;15.10;99.90
27633;DHT22;15046;50.930;13.334;2023-07-31T02:25:48;15.10;99.90
27633;DHT22;15046;50.930;13.334;2023-07-31T02:28:14;15.10;99.90
27633;DHT22;15046;50.930;13.334;2023-07-31T02:30:39;15.10;99.90
27633;DHT22;15046;50.930;13.334;2023-07-31T02:33:05;15.20;99.90
27633;DHT22;15046;50.930;13.334;2023-07-31T02:35:31;15.20;99.90
27633;DHT22;15046;50.930;13.334;2023-07-31T02:37:57;15.20;99.90
27633;DHT22;15046;50.930;13.334;2023-07-31T02:40:23;15.20;99.90
27633;DHT22;15046;50.930;13.334;2023-07-31T02:42:49;15.10;99.90
27633;DHT22;15046;50.930;13.334;2023-07-31T02:45:14;15.00;99.90
27633;DHT22;15046;50.930;13.334;2023-07-31T02:47:40;14.90;99.90
27633;DHT22;15046;50.930;13.334;2023-07-31T02:50:06;14.90;99.90
27633;DHT22;15046;50.930;13.334;2023-07-31T02:52:32;14.70;99.90
27633;DHT22;15046;50.930;13.334;2023-07-31T02:54:58;14.60;99.90
27633;DHT22;15046;50.930;13.334;2023-07-31T02:57:24;14.50;99.90
27633;DHT22;15046;50.930;13.334;2023-07-31T02:59:50;14.30;99.90
27633;DHT22;15046;50.930;13.334;2023-07-31T03:02:15;14.20;99.90
27633;DHT22;15046;50.930;13.334;2023-07-31T03:04:41;14.10;99.90
27633;DHT22;15046;50.930;13.334;2023-07-31T03:07:07;14.00;99.90
27633;DHT22;15046;50.930;13.334;2023-07-31T03:09:33;14.00;99.90
27633;DHT22;15046;50.930;13.334;2023-07-31T03:11:59;13.90;99.90
27633;DHT22;15046;50.930;13.334;2023-07-31T03:14:25;13.90;99.90
27633;DHT22;15046;50.930;13.334;2023-07-31T03:16:52;13.90;99.90
27633;DHT22;15046;50.930;13.334;2023-07-31T03:19:19;13.80;99.90
27633;DHT22;15046;50.930;13.334;2023-07-31T03:21:45;13.70;99.90
27633;DHT22;15046;50.930;13.334;2023-07-31T03:24:11;13.60;99.90
27633;DHT22;15046;50.930;13.334;2023-07-31T03:26:38;13.60;99.90
27633;DHT22;15046;50.930;13.334;2023-07-31T03:29:07;13.60;99.90
27633;DHT22;15046;50.930;13.334;2023-07-31T03:31:33;13.60;99.90
27633;DHT22;15046;50.930;13.334;2023-07-31T03:33:58;13.50;99.90
27633;DHT22;15046;50.930;13.334;2023-07-31T03:36:24;13.50;99.90
27633;DHT22;15046;50.930;13.334;2023-07-31T03:38:52;13.50;99.90
27633;DHT22;15046;50.930;13.334;2023-07-31T03:41:17;13.50;99.90
27633;DHT22;15046;50.930;13.334;2023-07-31T03:43:45;13.50;99.90
27633;DHT22;15046;50.930;13.334;2023-07-31T03:46:10;13.60;99.90
27633;DHT22;15046;50.930;13.334;2023-07-31T03:48:36;13.50;99.90
27633;DHT22;15046;50.930;13.334;2023-07-31T03:51:03;13.50;99.90
27633;DHT22;15046;50.930;13.334;2023-07-31T03:53:28;13.50;99.90
27633;DHT22;15046;50.930;13.334;2023-07-31T03:55:54;13.50;99.90
27633;DHT22;15046;50.930;13.334;2023-07-31T03:58:20;13.50;99.90
27633;DHT22;15046;50.930;13.334;2023-07-31T04:00:47;13.50;99.90
27633;DHT22;15046;50.930;13.334;2023-07-31T04:03:13;13.50;99.90
27633;DHT22;15046;50.930;13.334;2023-07-31T04:05:39;13.50;99.90
27633;DHT22;15046;50.930;13.334;2023-07-31T04:08:05;13.50;99.90
27633;DHT22;15046;50.930;13.334;2023-07-31T04:10:31;13.60;99.90
27633;DHT22;15046;50.930;13.334;2023-07-31T04:12:59;13.50;99.90
27633;DHT22;15046;50.930;13.334;2023-07-31T04:15:26;13.40;99.90
27633;DHT22;15046;50.930;13.334;2023-07-31T04:17:52;13.50;99.90
27633;DHT22;15046;50.930;13.334;2023-07-31T04:20:18;13.50;99.90
27633;DHT22;15046;50.930;13.334;2023-07-31T04:22:43;13.50;99.90
27633;DHT22;15046;50.930;13.334;2023-07-31T04:25:09;13.50;99.90
27633;DHT22;15046;50.930;13.334;2023-07-31T04:27:35;13.50;99.90
27633;DHT22;15046;50.930;13.334;2023-07-31T04:30:01;13.50;99.90
27633;DHT22;15046;50.930;13.334;2023-07-31T04:32:26;13.60;99.90
27633;DHT22;15046;50.930;13.334;2023-07-31T04:34:52;13.60;99.90
27633;DHT22;15046;50.930;13.334;2023-07-31T04:37:18;13.60;99.90
27633;DHT22;15046;50.930;13.334;2023-07-31T04:39:44;13.60;99.90
27633;DHT22;15046;50.930;13.334;2023-07-31T04:42:10;13.60;99.90
27633;DHT22;15046;50.930;13.334;2023-07-31T04:44:36;13.60;99.90
27633;DHT22;15046;50.930;13.334;2023-07-31T04:47:02;13.60;99.90
27633;DHT22;15046;50.930;13.334;2023-07-31T04:49:28;13.60;99.90
27633;DHT22;15046;50.930;13.334;2023-07-31T04:51:53;13.60;99.90
27633;DHT22;15046;50.930;13.334;2023-07-31T04:54:20;13.60;99.90
27633;DHT22;15046;50.930;13.334;2023-07-31T04:56:46;13.60;99.90
27633;DHT22;15046;50.930;13.334;2023-07-31T04:59:12;13.60;99.90
27633;DHT22;15046;50.930;13.334;2023-07-31T05:01:38;13.70;99.90
27633;DHT22;15046;50.930;13.334;2023-07-31T05:04:04;13.70;99.90
27633;DHT22;15046;50.930;13.334;2023-07-31T05:06:30;13.70;99.90
27633;DHT22;15046;50.930;13.334;2023-07-31T05:08:55;13.70;99.90
27633;DHT22;15046;50.930;13.334;2023-07-31T05:11:21;13.70;99.90
27633;DHT22;15046;50.930;13.334;2023-07-31T05:13:47;13.70;99.90
27633;DHT22;15046;50.930;13.334;2023-07-31T05:16:13;13.80;99.90
27633;DHT22;15046;50.930;13.334;2023-07-31T05:18:39;13.80;99.90
27633;DHT22;15046;50.930;13.334;2023-07-31T05:21:04;13.90;99.90
27633;DHT22;15046;50.930;13.334;2023-07-31T05:23:30;13.90;99.90
27633;DHT22;15046;50.930;13.334;2023-07-31T05:26:07;13.90;99.90
27633;DHT22;15046;50.930;13.334;2023-07-31T05:28:35;14.00;99.90
27633;DHT22;15046;50.930;13.334;2023-07-31T05:31:02;13.90;99.90
27633;DHT22;15046;50.930;13.334;2023-07-31T05:33:28;14.00;99.90
27633;DHT22;15046;50.930;13.334;2023-07-31T05:35:54;14.00;99.90
27633;DHT22;15046;50.930;13.334;2023-07-31T05:38:20;14.10;99.90
27633;DHT22;15046;50.930;13.334;2023-07-31T05:40:47;14.20;99.90
27633;DHT22;15046;50.930;13.334;2023-07-31T05:43:13;14.20;99.90
27633;DHT22;15046;50.930;13.334;2023-07-31T05:45:39;14.30;99.90
27633;DHT22;15046;50.930;13.334;2023-07-31T05:48:06;14.30;99.90
27633;DHT22;15046;50.930;13.334;2023-07-31T05:50:31;14.30;99.90
27633;DHT22;15046;50.930;13.334;2023-07-31T05:52:57;14.30;99.90
27633;DHT22;15046;50.930;13.334;2023-07-31T05:55:24;14.30;99.90
27633;DHT22;15046;50.930;13.334;2023-07-31T05:57:53;14.30;99.90
27633;DHT22;15046;50.930;13.334;2023-07-31T06:00:19;14.30;99.90
27633;DHT22;15046;50.930;13.334;2023-07-31T06:02:46;14.20;99.90
27633;DHT22;15046;50.930;13.334;2023-07-31T06:05:12;14.30;99.90
27633;DHT22;15046;50.930;13.334;2023-07-31T06:07:38;14.30;99.90
27633;DHT22;15046;50.930;13.334;2023-07-31T06:10:04;14.30;99.90
27633;DHT22;15046;50.930;13.334;2023-07-31T06:12:34;14.30;99.90
27633;DHT22;15046;50.930;13.334;2023-07-31T06:15:00;14.30;99.90
27633;DHT22;15046;50.930;13.334;2023-07-31T06:17:26;14.30;99.90
27633;DHT22;15046;50.930;13.334;2023-07-31T06:19:52;14.30;99.90
27633;DHT22;15046;50.930;13.334;2023-07-31T06:22:18;14.30;99.90
27633;DHT22;15046;50.930;13.334;2023-07-31T06:24:44;14.40;99.90
27633;DHT22;15046;50.930;13.334;2023-07-31T06:27:11;14.40;99.90
27633;DHT22;15046;50.930;13.334;2023-07-31T06:29:36;14.50;99.90
27633;DHT22;15046;50.930;13.334;2023-07-31T06:32:03;14.50;99.90
27633;DHT22;15046;50.930;13.334;2023-07-31T06:34:28;14.60;99.90
27633;DHT22;15046;50.930;13.334;2023-07-31T06:36:58;14.60;99.90
27633;DHT22;15046;50.930;13.334;2023-07-31T06:39:24;14.70;99.90
27633;DHT22;15046;50.930;13.334;2023-07-31T06:41:49;14.70;99.90
27633;DHT22;15046;50.930;13.334;2023-07-31T06:44:16;14.80;99.90
27633;DHT22;15046;50.930;13.334;2023-07-31T06:46:42;14.90;99.90
27633;DHT22;15046;50.930;13.334;2023-07-31T06:49:10;15.00;99.90
27633;DHT22;15046;50.930;13.334;2023-07-31T06:51:36;15.10;99.90
27633;DHT22;15046;50.930;13.334;2023-07-31T06:54:03;15.30;99.90
27633;DHT22;15046;50.930;13.334;2023-07-31T06:56:29;15.50;99.90
27633;DHT22;15046;50.930;13.334;2023-07-31T06:58:55;15.60;99.90
27633;DHT22;15046;50.930;13.334;2023-07-31T07:01:21;15.70;99.90
27633;DHT22;15046;50.930;13.334;2023-07-31T07:03:47;15.90;99.90
27633;DHT22;15046;50.930;13.334;2023-07-31T07:06:16;16.00;99.90
27633;DHT22;15046;50.930;13.334;2023-07-31T07:08:42;16.00;99.90
27633;DHT22;15046;50.930;13.334;2023-07-31T07:11:08;16.10;99.90
27633;DHT22;15046;50.930;13.334;2023-07-31T07:13:34;16.20;99.90
27633;DHT22;15046;50.930;13.334;2023-07-31T07:15:59;16.30;99.90
27633;DHT22;15046;50.930;13.334;2023-07-31T07:18:25;16.40;99.90
27633;DHT22;15046;50.930;13.334;2023-07-31T07:20:52;16.50;99.90
27633;DHT22;15046;50.930;13.334;2023-07-31T07:23:19;16.60;99.90
27633;DHT22;15046;50.930;13.334;2023-07-31T07:25:46;16.60;99.90
27633;DHT22;15046;50.930;13.334;2023-07-31T07:28:13;16.60;99.90
27633;DHT22;15046;50.930;13.334;2023-07-31T07:30:38;16.70;99.90
27633;DHT22;15046;50.930;13.334;2023-07-31T07:33:05;16.80;99.90
27633;DHT22;15046;50.930;13.334;2023-07-31T07:35:33;16.90;99.90
27633;DHT22;15046;50.930;13.334;2023-07-31T07:38:00;17.10;99.90
27633;DHT22;15046;50.930;13.334;2023-07-31T07:40:26;17.10;99.90
27633;DHT22;15046;50.930;13.334;2023-07-31T07:42:52;17.30;99.90
27633;DHT22;15046;50.930;13.334;2023-07-31T07:45:18;17.30;99.90
27633;DHT22;15046;50.930;13.334;2023-07-31T07:47:43;17.40;99.90
27633;DHT22;15046;50.930;13.334;2023-07-31T07:50:10;17.50;99.90
27633;DHT22;15046;50.930;13.334;2023-07-31T07:52:35;17.50;99.90
27633;DHT22;15046;50.930;13.334;2023-07-31T07:55:01;17.50;99.90
27633;DHT22;15046;50.930;13.334;2023-07-31T07:57:29;17.60;99.90
27633;DHT22;15046;50.930;13.334;2023-07-31T07:59:54;17.60;99.90
27633;DHT22;15046;50.930;13.334;2023-07-31T08:02:21;17.70;99.90
27633;DHT22;15046;50.930;13.334;2023-07-31T08:04:47;17.60;99.90
27633;DHT22;15046;50.930;13.334;2023-07-31T08:07:13;17.70;99.90
27633;DHT22;15046;50.930;13.334;2023-07-31T08:09:39;17.60;99.90
27633;DHT22;15046;50.930;13.334;2023-07-31T08:12:06;17.60;99.90
27633;DHT22;15046;50.930;13.334;2023-07-31T08:14:32;17.50;99.90
27633;DHT22;15046;50.930;13.334;2023-07-31T08:16:58;17.50;99.90
27633;DHT22;15046;50.930;13.334;2023-07-31T08:19:24;17.40;99.90
27633;DHT22;15046;50.930;13.334;2023-07-31T08:21:49;17.30;99.90
27633;DHT22;15046;50.930;13.334;2023-07-31T08:24:15;17.30;99.90
27633;DHT22;15046;50.930;13.334;2023-07-31T08:26:41;17.30;99.90
27633;DHT22;15046;50.930;13.334;2023-07-31T08:29:07;17.30;99.90
27633;DHT22;15046;50.930;13.334;2023-07-31T08:31:33;17.20;99.90
27633;DHT22;15046;50.930;13.334;2023-07-31T08:34:00;17.20;99.90
27633;DHT22;15046;50.930;13.334;2023-07-31T08:36:26;17.10;99.90
27633;DHT22;15046;50.930;13.334;2023-07-31T08:38:52;17.10;99.90
27633;DHT22;15046;50.930;13.334;2023-07-31T08:41:18;17.10;99.90
27633;DHT22;15046;50.930;13.334;2023-07-31T08:43:47;17.10;99.90
27633;DHT22;15046;50.930;13.334;2023-07-31T08:46:15;17.00;99.90
27633;DHT22;15046;50.930;13.334;2023-07-31T08:48:42;17.00;99.90
27633;DHT22;15046;50.930;13.334;2023-07-31T08:51:09;17.00;99.90
27633;DHT22;15046;50.930;13.334;2023-07-31T08:53:36;17.00;99.90
27633;DHT22;15046;50.930;13.334;2023-07-31T08:56:02;17.00;99.90
27633;DHT22;15046;50.930;13.334;2023-07-31T08:58:32;17.10;99.90
27633;DHT22;15046;50.930;13.334;2023-07-31T09:01:01;17.10;99.90
27633;DHT22;15046;50.930;13.334;2023-07-31T09:03:27;17.10;99.90
27633;DHT22;15046;50.930;13.334;2023-07-31T09:05:56;17.10;99.90
27633;DHT22;15046;50.930;13.334;2023-07-31T09:08:24;17.10;99.90
27633;DHT22;15046;50.930;13.334;2023-07-31T09:10:50;17.10;99.90
27633;DHT22;15046;50.930;13.334;2023-07-31T09:13:17;17.20;99.90
27633;DHT22;15046;50.930;13.334;2023-07-31T09:15:44;17.20;99.90
27633;DHT22;15046;50.930;13.334;2023-07-31T09:18:10;17.30;99.90
27633;DHT22;15046;50.930;13.334;2023-07-31T09:20:37;17.40;99.90
27633;DHT22;15046;50.930;13.334;2023-07-31T09:23:13;17.50;99.90
27633;DHT22;15046;50.930;13.334;2023-07-31T09:25:43;17.50;99.90
27633;DHT22;15046;50.930;13.334;2023-07-31T09:28:11;17.60;99.90
27633;DHT22;15046;50.930;13.334;2023-07-31T09:31:03;17.70;99.90
27633;DHT22;15046;50.930;13.334;2023-07-31T09:33:29;17.80;99.90
27633;DHT22;15046;50.930;13.334;2023-07-31T09:35:58;17.90;99.90
27633;DHT22;15046;50.930;13.334;2023-07-31T09:38:25;17.90;99.90
27633;DHT22;15046;50.930;13.334;2023-07-31T09:40:51;18.00;99.90
27633;DHT22;15046;50.930;13.334;2023-07-31T09:43:18;18.20;99.90
27633;DHT22;15046;50.930;13.334;2023-07-31T09:45:45;18.40;99.90
27633;DHT22;15046;50.930;13.334;2023-07-31T09:48:16;18.40;99.90
27633;DHT22;15046;50.930;13.334;2023-07-31T09:50:44;18.50;99.90
27633;DHT22;15046;50.930;13.334;2023-07-31T09:53:10;18.50;99.90
27633;DHT22;15046;50.930;13.334;2023-07-31T09:55:37;18.50;99.90
27633;DHT22;15046;50.930;13.334;2023-07-31T09:58:06;18.50;99.90
27633;DHT22;15046;50.930;13.334;2023-07-31T10:00:32;18.60;99.90
27633;DHT22;15046;50.930;13.334;2023-07-31T10:03:00;18.50;99.90
27633;DHT22;15046;50.930;13.334;2023-07-31T10:05:38;18.70;99.90
27633;DHT22;15046;50.930;13.334;2023-07-31T10:08:06;18.70;99.90
27633;DHT22;15046;50.930;13.334;2023-07-31T10:10:33;18.70;99.90
27633;DHT22;15046;50.930;13.334;2023-07-31T10:13:00;18.90;99.90
27633;DHT22;15046;50.930;13.334;2023-07-31T10:15:27;19.00;99.90
27633;DHT22;15046;50.930;13.334;2023-07-31T10:17:54;19.10;99.90
27633;DHT22;15046;50.930;13.334;2023-07-31T10:20:21;19.10;99.90
27633;DHT22;15046;50.930;13.334;2023-07-31T10:22:48;19.20;99.90
27633;DHT22;15046;50.930;13.334;2023-07-31T10:25:15;19.30;99.90
27633;DHT22;15046;50.930;13.334;2023-07-31T10:27:42;19.40;99.90
27633;DHT22;15046;50.930;13.334;2023-07-31T10:30:11;19.50;99.90
27633;DHT22;15046;50.930;13.334;2023-07-31T10:32:39;19.70;99.90
27633;DHT22;15046;50.930;13.334;2023-07-31T10:35:08;19.90;99.90
27633;DHT22;15046;50.930;13.334;2023-07-31T10:37:39;20.20;99.90
27633;DHT22;15046;50.930;13.334;2023-07-31T10:40:09;20.40;99.90
27633;DHT22;15046;50.930;13.334;2023-07-31T10:42:36;20.60;99.90
27633;DHT22;15046;50.930;13.334;2023-07-31T10:45:08;20.70;99.90
27633;DHT22;15046;50.930;13.334;2023-07-31T10:47:59;20.60;99.90
27633;DHT22;15046;50.930;13.334;2023-07-31T10:50:26;20.60;99.90
27633;DHT22;15046;50.930;13.334;2023-07-31T10:52:54;20.40;99.90
27633;DHT22;15046;50.930;13.334;2023-07-31T10:58:12;18.90;99.90
27633;DHT22;15046;50.930;13.334;2023-07-31T11:00:43;18.30;99.90
27633;DHT22;15046;50.930;13.334;2023-07-31T11:03:19;17.90;99.90
27633;DHT22;15046;50.930;13.334;2023-07-31T11:06:01;17.80;99.90
27633;DHT22;15046;50.930;13.334;2023-07-31T11:08:33;17.70;99.90
27633;DHT22;15046;50.930;13.334;2023-07-31T11:13:29;17.90;99.90
27633;DHT22;15046;50.930;13.334;2023-07-31T11:15:55;18.40;99.90
27633;DHT22;15046;50.930;13.334;2023-07-31T11:18:21;19.40;99.90
27633;DHT22;15046;50.930;13.334;2023-07-31T11:20:48;20.70;99.90
27633;DHT22;15046;50.930;13.334;2023-07-31T11:23:16;21.60;99.90
27633;DHT22;15046;50.930;13.334;2023-07-31T11:25:42;21.80;99.90
27633;DHT22;15046;50.930;13.334;2023-07-31T11:28:12;22.10;99.90
27633;DHT22;15046;50.930;13.334;2023-07-31T11:30:38;22.50;99.90
27633;DHT22;15046;50.930;13.334;2023-07-31T11:33:09;22.50;99.90
27633;DHT22;15046;50.930;13.334;2023-07-31T11:35:44;22.50;99.90
27633;DHT22;15046;50.930;13.334;2023-07-31T11:38:12;22.90;99.90
27633;DHT22;15046;50.930;13.334;2023-07-31T11:40:43;23.50;99.90
27633;DHT22;15046;50.930;13.334;2023-07-31T11:43:10;23.50;99.90
27633;DHT22;15046;50.930;13.334;2023-07-31T11:45:37;23.60;99.90
27633;DHT22;15046;50.930;13.334;2023-07-31T11:48:03;24.30;99.80
27633;DHT22;15046;50.930;13.334;2023-07-31T11:50:33;24.20;98.10
27633;DHT22;15046;50.930;13.334;2023-07-31T11:53:07;24.30;96.70
27633;DHT22;15046;50.930;13.334;2023-07-31T11:55:35;24.40;95.50
27633;DHT22;15046;50.930;13.334;2023-07-31T11:58:01;24.60;95.20
27633;DHT22;15046;50.930;13.334;2023-07-31T12:00:27;25.40;94.10
27633;DHT22;15046;50.930;13.334;2023-07-31T12:02:54;26.00;92.10
27633;DHT22;15046;50.930;13.334;2023-07-31T12:05:22;26.10;90.50
27633;DHT22;15046;50.930;13.334;2023-07-31T12:07:49;25.90;89.10
27633;DHT22;15046;50.930;13.334;2023-07-31T12:10:29;25.90;88.50
27633;DHT22;15046;50.930;13.334;2023-07-31T12:13:07;26.40;86.90
27633;DHT22;15046;50.930;13.334;2023-07-31T12:15:40;26.40;85.10
27633;DHT22;15046;50.930;13.334;2023-07-31T12:18:10;26.50;84.30
27633;DHT22;15046;50.930;13.334;2023-07-31T12:20:44;26.70;82.50
27633;DHT22;15046;50.930;13.334;2023-07-31T12:23:19;26.00;83.00
27633;DHT22;15046;50.930;13.334;2023-07-31T12:26:00;26.00;83.10
27633;DHT22;15046;50.930;13.334;2023-07-31T12:28:27;26.60;81.80
27633;DHT22;15046;50.930;13.334;2023-07-31T12:30:57;27.20;79.80
27633;DHT22;15046;50.930;13.334;2023-07-31T12:33:29;27.80;78.30
27633;DHT22;15046;50.930;13.334;2023-07-31T12:35:55;27.80;76.60
27633;DHT22;15046;50.930;13.334;2023-07-31T12:38:22;27.20;76.70
27633;DHT22;15046;50.930;13.334;2023-07-31T12:40:48;27.00;75.90
27633;DHT22;15046;50.930;13.334;2023-07-31T12:43:13;26.90;76.40
27633;DHT22;15046;50.930;13.334;2023-07-31T12:45:40;26.60;75.90
27633;DHT22;15046;50.930;13.334;2023-07-31T12:48:06;26.30;76.30
27633;DHT22;15046;50.930;13.334;2023-07-31T12:50:32;25.90;75.90
27633;DHT22;15046;50.930;13.334;2023-07-31T12:52:58;25.60;76.30
27633;DHT22;15046;50.930;13.334;2023-07-31T12:55:24;25.30;78.70
27633;DHT22;15046;50.930;13.334;2023-07-31T12:57:50;25.10;79.10
27633;DHT22;15046;50.930;13.334;2023-07-31T13:00:16;25.00;78.50
27633;DHT22;15046;50.930;13.334;2023-07-31T13:02:42;24.70;78.60
27633;DHT22;15046;50.930;13.334;2023-07-31T13:05:08;24.40;78.20
27633;DHT22;15046;50.930;13.334;2023-07-31T13:07:34;24.10;78.50
27633;DHT22;15046;50.930;13.334;2023-07-31T13:10:00;23.90;78.70
27633;DHT22;15046;50.930;13.334;2023-07-31T13:12:26;23.80;78.70
27633;DHT22;15046;50.930;13.334;2023-07-31T13:14:51;23.80;79.10
27633;DHT22;15046;50.930;13.334;2023-07-31T13:17:18;23.80;79.10
27633;DHT22;15046;50.930;13.334;2023-07-31T13:19:44;23.70;79.00
27633;DHT22;15046;50.930;13.334;2023-07-31T13:22:10;23.70;79.10
27633;DHT22;15046;50.930;13.334;2023-07-31T13:24:37;23.80;78.60
27633;DHT22;15046;50.930;13.334;2023-07-31T13:27:03;24.10;78.80
27633;DHT22;15046;50.930;13.334;2023-07-31T13:29:29;24.70;78.30
27633;DHT22;15046;50.930;13.334;2023-07-31T13:31:56;25.30;77.10
27633;DHT22;15046;50.930;13.334;2023-07-31T13:34:21;25.80;76.40
27633;DHT22;15046;50.930;13.334;2023-07-31T13:36:47;26.30;76.70
27633;DHT22;15046;50.930;13.334;2023-07-31T13:39:13;26.70;75.00
27633;DHT22;15046;50.930;13.334;2023-07-31T13:41:39;26.50;74.20
27633;DHT22;15046;50.930;13.334;2023-07-31T13:44:04;26.40;74.20
27633;DHT22;15046;50.930;13.334;2023-07-31T13:46:30;26.40;74.20
27633;DHT22;15046;50.930;13.334;2023-07-31T13:49:00;26.30;73.80
27633;DHT22;15046;50.930;13.334;2023-07-31T13:51:27;26.20;73.60
27633;DHT22;15046;50.930;13.334;2023-07-31T13:53:54;25.80;74.40
27633;DHT22;15046;50.930;13.334;2023-07-31T13:56:19;25.60;74.40
27633;DHT22;15046;50.930;13.334;2023-07-31T13:58:45;25.50;74.40
27633;DHT22;15046;50.930;13.334;2023-07-31T14:01:11;25.30;75.00
27633;DHT22;15046;50.930;13.334;2023-07-31T14:03:37;25.60;74.90
27633;DHT22;15046;50.930;13.334;2023-07-31T14:06:02;25.30;74.00
27633;DHT22;15046;50.930;13.334;2023-07-31T14:08:28;25.60;74.40
27633;DHT22;15046;50.930;13.334;2023-07-31T14:10:55;25.90;73.80
27633;DHT22;15046;50.930;13.334;2023-07-31T14:13:21;26.20;72.80
27633;DHT22;15046;50.930;13.334;2023-07-31T14:15:47;26.60;72.60
27633;DHT22;15046;50.930;13.334;2023-07-31T14:18:13;26.60;71.40
27633;DHT22;15046;50.930;13.334;2023-07-31T14:20:39;26.20;71.10
27633;DHT22;15046;50.930;13.334;2023-07-31T14:23:04;26.00;72.10
27633;DHT22;15046;50.930;13.334;2023-07-31T14:25:30;26.00;72.20
27633;DHT22;15046;50.930;13.334;2023-07-31T14:27:56;25.70;72.50
27633;DHT22;15046;50.930;13.334;2023-07-31T14:30:22;25.50;73.30
27633;DHT22;15046;50.930;13.334;2023-07-31T14:32:48;25.40;73.40
27633;DHT22;15046;50.930;13.334;2023-07-31T14:35:14;25.20;74.00
27633;DHT22;15046;50.930;13.334;2023-07-31T14:37:41;25.00;73.50
27633;DHT22;15046;50.930;13.334;2023-07-31T14:40:09;24.60;73.40
27633;DHT22;15046;50.930;13.334;2023-07-31T14:42:35;24.10;74.50
27633;DHT22;15046;50.930;13.334;2023-07-31T14:45:02;23.80;75.30
27633;DHT22;15046;50.930;13.334;2023-07-31T14:47:28;24.00;76.40
27633;DHT22;15046;50.930;13.334;2023-07-31T14:50:01;24.60;76.20
27633;DHT22;15046;50.930;13.334;2023-07-31T14:52:26;25.80;75.00
27633;DHT22;15046;50.930;13.334;2023-07-31T14:54:52;26.80;73.00
27633;DHT22;15046;50.930;13.334;2023-07-31T14:57:18;27.20;71.00
27633;DHT22;15046;50.930;13.334;2023-07-31T14:59:45;27.00;69.80
27633;DHT22;15046;50.930;13.334;2023-07-31T15:02:11;26.40;70.20
27633;DHT22;15046;50.930;13.334;2023-07-31T15:04:37;25.70;71.00
27633;DHT22;15046;50.930;13.334;2023-07-31T15:07:03;25.20;72.30
27633;DHT22;15046;50.930;13.334;2023-07-31T15:09:29;24.80;74.40
27633;DHT22;15046;50.930;13.334;2023-07-31T15:11:56;24.60;74.60
27633;DHT22;15046;50.930;13.334;2023-07-31T15:14:22;24.30;74.40
27633;DHT22;15046;50.930;13.334;2023-07-31T15:16:48;24.00;75.10
27633;DHT22;15046;50.930;13.334;2023-07-31T15:19:15;23.80;75.80
27633;DHT22;15046;50.930;13.334;2023-07-31T15:21:41;23.80;76.20
27633;DHT22;15046;50.930;13.334;2023-07-31T15:24:07;23.70;76.30
27633;DHT22;15046;50.930;13.334;2023-07-31T15:26:32;23.60;77.10